Time;durP1;ratioP1;P1;durP2;ratioP2;P2;SDS_P1;SDS_P2;PMS_P1;PMS_P2;Temp;Humidity;BMP_temperature;BMP_pressure;BME280_temperature;BME280_humidity;BME280_pressure;Samples;Min_cycle;Max_cycle;Signal;HPM_P1;HPM_P2
2021/04/08 00:00:48;;;;;;;20.25;4.93;;;2.90;99.90;;;;;;5056421;28;20028;-56
2021/04/08 00:03:13;;;;;;;21.20;4.63;;;2.90;99.90;;;;;;5058000;28;20025;-53
2021/04/08 00:05:39;;;;;;;22.77;4.28;;;2.90;99.90;;;;;;5055823;28;20025;-54
2021/04/08 00:08:05;;;;;;;27.85;4.90;;;2.90;99.90;;;;;;5059092;28;20029;-53
2021/04/08 00:10:31;;;;;;;20.25;5.57;;;2.90;99.90;;;;;;5050033;28;20046;-57
2021/04/08 00:12:56;;;;;;;22.20;4.95;;;2.90;99.90;;;;;;5062277;28;20037;-53
2021/04/08 00:15:22;;;;;;;21.38;7.20;;;2.90;99.90;;;;;;5053309;28;20103;-57
2021/04/08 00:17:47;;;;;;;27.98;5.85;;;2.90;99.90;;;;;;5059950;28;20040;-55
2021/04/08 00:20:20;;;;;;;27.02;6.68;;;3.00;99.90;;;;;;5054657;28;20449;-53
2021/04/08 00:22:45;;;;;;;25.45;6.50;;;2.90;99.90;;;;;;5061915;28;20025;-53
2021/04/08 00:25:13;;;;;;;26.38;6.80;;;2.90;99.90;;;;;;5059478;28;20031;-54
2021/04/08 00:27:39;;;;;;;16.33;6.20;;;2.90;99.90;;;;;;5056409;28;20272;-56
2021/04/08 00:30:06;;;;;;;24.23;7.28;;;2.90;99.90;;;;;;5054467;28;20028;-56
2021/04/08 00:32:31;;;;;;;24.48;7.22;;;2.90;99.90;;;;;;5061821;28;20382;-56
2021/04/08 00:34:57;;;;;;;26.73;7.18;;;2.80;99.90;;;;;;5037142;28;20040;-54
2021/04/08 00:37:23;;;;;;;20.40;7.68;;;2.80;99.90;;;;;;5059714;28;20158;-55
2021/04/08 00:39:49;;;;;;;25.02;7.32;;;2.80;99.90;;;;;;5054798;28;20062;-58
2021/04/08 00:42:14;;;;;;;24.50;7.97;;;2.90;99.90;;;;;;5062051;28;20137;-58
2021/04/08 00:44:40;;;;;;;25.05;7.05;;;2.90;99.90;;;;;;5058053;28;20017;-57
2021/04/08 00:47:06;;;;;;;27.98;9.18;;;2.80;99.90;;;;;;5052640;28;20048;-57
2021/04/08 00:49:31;;;;;;;20.80;7.95;;;2.90;99.90;;;;;;5053839;28;20029;-57
2021/04/08 00:51:57;;;;;;;31.15;9.00;;;2.80;99.90;;;;;;5059922;28;20025;-54
2021/04/08 00:54:23;;;;;;;25.90;8.63;;;2.80;99.90;;;;;;5057685;28;20031;-54
2021/04/08 00:56:49;;;;;;;32.20;8.63;;;2.90;99.90;;;;;;5052073;28;20116;-54
2021/04/08 00:59:15;;;;;;;30.40;8.98;;;2.80;99.90;;;;;;5055018;28;20099;-53
2021/04/08 01:01:41;;;;;;;29.90;7.93;;;2.80;99.90;;;;;;5057119;28;20387;-54
2021/04/08 01:04:07;;;;;;;31.02;9.73;;;2.80;99.90;;;;;;5059062;28;20035;-56
2021/04/08 01:06:32;;;;;;;25.33;9.73;;;2.90;99.90;;;;;;5055077;28;20025;-54
2021/04/08 01:08:58;;;;;;;25.90;8.23;;;2.90;99.90;;;;;;5059405;28;20025;-54
2021/04/08 01:11:25;;;;;;;19.40;7.85;;;2.90;99.90;;;;;;5057324;28;20429;-53
2021/04/08 01:13:52;;;;;;;19.88;7.30;;;2.90;99.90;;;;;;5056676;28;20021;-55
2021/04/08 01:16:32;;;;;;;25.88;6.07;;;2.90;99.90;;;;;;5049931;28;20025;-57
2021/04/08 01:19:26;;;;;;;24.13;5.85;;;2.90;99.90;;;;;;5045949;28;20052;-56
2021/04/08 01:22:02;;;;;;;20.70;5.87;;;2.80;99.90;;;;;;5052939;28;20212;-54
2021/04/08 01:24:45;;;;;;;30.80;7.05;;;2.80;99.90;;;;;;5063540;28;20037;-57
2021/04/08 01:27:34;;;;;;;21.20;6.90;;;2.80;99.90;;;;;;5055207;28;20024;-57
2021/04/08 01:30:23;;;;;;;34.47;7.22;;;2.80;99.90;;;;;;5059398;28;20045;-57
2021/04/08 01:32:55;;;;;;;26.85;7.03;;;2.80;99.90;;;;;;5036971;28;20053;-58
2021/04/08 01:35:26;;;;;;;26.05;5.97;;;2.80;99.90;;;;;;5052097;28;20373;-57
2021/04/08 01:38:15;;;;;;;18.60;5.90;;;2.80;99.90;;;;;;5052002;28;20387;-56
2021/04/08 01:40:43;;;;;;;19.65;5.30;;;2.80;99.90;;;;;;5055324;28;20414;-57
2021/04/08 01:43:09;;;;;;;16.52;5.97;;;2.90;99.90;;;;;;5061425;28;20025;-54
2021/04/08 01:45:35;;;;;;;21.02;5.90;;;2.90;99.90;;;;;;5050956;28;20059;-55
2021/04/08 01:48:05;;;;;;;26.95;7.22;;;2.90;99.90;;;;;;5050955;28;20017;-54
2021/04/08 01:50:32;;;;;;;31.15;6.85;;;2.90;99.90;;;;;;5051022;28;20024;-57
2021/04/08 01:53:00;;;;;;;23.05;6.88;;;2.90;99.90;;;;;;5059092;28;20083;-53
2021/04/08 01:55:28;;;;;;;19.77;6.82;;;2.90;99.90;;;;;;5051447;28;20056;-55
2021/04/08 01:57:54;;;;;;;27.50;7.40;;;2.90;99.90;;;;;;5051162;28;20047;-53
2021/04/08 02:00:21;;;;;;;25.25;6.53;;;2.90;99.90;;;;;;5053172;28;20135;-56
2021/04/08 02:02:54;;;;;;;28.15;6.95;;;2.90;99.90;;;;;;5060058;28;20025;-54
2021/04/08 02:05:21;;;;;;;27.98;6.60;;;2.90;99.90;;;;;;5046544;28;20448;-54
2021/04/08 02:07:48;;;;;;;18.83;6.68;;;2.90;99.90;;;;;;5053207;28;20029;-54
2021/04/08 02:10:16;;;;;;;26.13;8.02;;;2.90;99.90;;;;;;5055425;28;20038;-55
2021/04/08 02:12:46;;;;;;;22.33;6.75;;;2.90;99.90;;;;;;5055365;28;20021;-54
2021/04/08 02:15:13;;;;;;;32.08;8.23;;;3.00;99.90;;;;;;5051172;28;20044;-53
2021/04/08 02:17:40;;;;;;;14.15;6.68;;;3.00;99.90;;;;;;5057153;28;20380;-57
2021/04/08 02:20:13;;;;;;;17.95;7.22;;;3.00;99.90;;;;;;5046863;28;20023;-55
2021/04/08 02:22:41;;;;;;;25.55;7.72;;;3.00;99.90;;;;;;5052993;28;20025;-54
2021/04/08 02:25:09;;;;;;;29.08;7.45;;;3.00;99.90;;;;;;5060190;28;20027;-57
2021/04/08 02:27:39;;;;;;;23.35;7.70;;;3.00;99.90;;;;;;5054120;28;20123;-57
2021/04/08 02:30:07;;;;;;;23.60;6.55;;;2.90;99.90;;;;;;5059177;28;20028;-57
2021/04/08 02:32:34;;;;;;;21.75;6.72;;;2.90;99.90;;;;;;5052936;28;20781;-56
2021/04/08 02:35:00;;;;;;;16.05;6.60;;;2.90;99.90;;;;;;5050084;28;20060;-56
2021/04/08 02:37:26;;;;;;;15.15;5.32;;;2.90;99.90;;;;;;5054162;28;20079;-58
2021/04/08 02:39:51;;;;;;;12.30;5.20;;;2.90;99.90;;;;;;5051268;28;20067;-57
2021/04/08 02:42:17;;;;;;;20.80;5.03;;;3.00;99.90;;;;;;5054904;28;20029;-58
2021/04/08 02:44:42;;;;;;;23.00;5.93;;;2.90;99.90;;;;;;5050008;28;20024;-58
2021/04/08 02:47:08;;;;;;;19.95;4.82;;;2.90;99.90;;;;;;5054824;28;20029;-58
2021/04/08 02:49:33;;;;;;;17.85;4.65;;;2.90;99.90;;;;;;5043149;28;20037;-56
2021/04/08 02:52:04;;;;;;;18.50;5.28;;;3.00;99.90;;;;;;5049658;28;20046;-58
2021/04/08 02:54:47;;;;;;;20.33;5.18;;;2.90;99.90;;;;;;5049779;28;20021;-57
2021/04/08 02:57:33;;;;;;;16.38;4.55;;;2.90;99.90;;;;;;5052358;28;20070;-57
2021/04/08 03:00:09;;;;;;;17.13;4.30;;;3.00;99.90;;;;;;5052244;28;20025;-57
2021/04/08 03:02:40;;;;;;;27.65;5.90;;;3.00;99.90;;;;;;5057002;28;20026;-57
2021/04/08 03:05:08;;;;;;;19.33;4.38;;;3.00;99.90;;;;;;5047542;28;20029;-58
2021/04/08 03:07:40;;;;;;;16.73;4.00;;;3.00;99.90;;;;;;5050231;28;20451;-58
2021/04/08 03:10:10;;;;;;;18.25;3.58;;;3.00;99.90;;;;;;5050981;28;20028;-57
2021/04/08 03:12:39;;;;;;;16.83;4.38;;;3.00;99.90;;;;;;5050208;28;20021;-58
2021/04/08 03:15:06;;;;;;;14.68;4.05;;;3.00;99.90;;;;;;5049462;28;20454;-57
2021/04/08 03:17:37;;;;;;;17.27;4.53;;;3.00;99.90;;;;;;5049499;28;20025;-58
2021/04/08 03:20:07;;;;;;;21.55;4.18;;;3.00;99.90;;;;;;5052796;28;20470;-57
2021/04/08 03:22:35;;;;;;;13.35;4.10;;;3.00;99.90;;;;;;5053291;28;20210;-55
2021/04/08 03:25:02;;;;;;;12.20;4.10;;;3.00;99.90;;;;;;5049780;28;20111;-54
2021/04/08 03:27:29;;;;;;;11.23;4.32;;;3.00;99.90;;;;;;5059959;28;20031;-58
2021/04/08 03:29:56;;;;;;;23.77;4.50;;;3.00;99.90;;;;;;5046077;28;20505;-56
2021/04/08 03:32:22;;;;;;;16.75;5.20;;;3.00;99.90;;;;;;5051102;28;20032;-57
2021/04/08 03:34:49;;;;;;;22.80;5.93;;;3.00;99.90;;;;;;5049101;28;20029;-58
2021/04/08 03:37:16;;;;;;;25.25;8.25;;;3.00;99.90;;;;;;5059722;28;20095;-57
2021/04/08 03:39:42;;;;;;;18.88;8.18;;;3.00;99.90;;;;;;5050361;28;20021;-57
2021/04/08 03:42:13;;;;;;;24.13;6.95;;;3.00;99.90;;;;;;5062355;28;20028;-57
2021/04/08 03:44:38;;;;;;;23.17;6.80;;;3.00;99.90;;;;;;5050045;28;20025;-54
2021/04/08 03:47:05;;;;;;;19.40;7.20;;;3.10;99.90;;;;;;5055894;28;20021;-58
2021/04/08 03:49:32;;;;;;;16.45;7.50;;;3.00;99.90;;;;;;5048820;28;20079;-53
2021/04/08 03:51:58;;;;;;;24.73;9.23;;;3.10;99.90;;;;;;5061093;28;20087;-54
2021/04/08 03:54:26;;;;;;;20.83;8.07;;;3.00;99.90;;;;;;5048903;28;20082;-56
2021/04/08 03:56:53;;;;;;;22.40;8.00;;;3.00;99.90;;;;;;5058704;28;20139;-54
2021/04/08 03:59:19;;;;;;;19.40;8.65;;;3.00;99.90;;;;;;5043964;28;20568;-57
2021/04/08 04:01:46;;;;;;;24.90;8.73;;;3.00;99.90;;;;;;5054724;28;20056;-58
2021/04/08 04:04:13;;;;;;;26.30;8.55;;;3.00;99.90;;;;;;5050907;28;20508;-53
2021/04/08 04:06:42;;;;;;;24.40;9.35;;;3.00;99.90;;;;;;5056763;28;20052;-56
2021/04/08 04:09:13;;;;;;;22.15;9.00;;;2.90;99.90;;;;;;5049601;28;20029;-55
2021/04/08 04:11:41;;;;;;;16.05;7.95;;;3.00;99.90;;;;;;5055449;28;20021;-55
2021/04/08 04:14:13;;;;;;;28.52;9.05;;;3.00;99.90;;;;;;5045545;28;20017;-55
2021/04/08 04:16:42;;;;;;;21.92;8.50;;;3.00;99.90;;;;;;5054644;28;20127;-54
2021/04/08 04:19:07;;;;;;;23.30;8.93;;;3.00;99.90;;;;;;5056005;28;20024;-53
2021/04/08 04:21:34;;;;;;;17.70;8.82;;;3.00;99.90;;;;;;5053085;28;20025;-55
2021/04/08 04:24:00;;;;;;;20.70;8.90;;;3.00;99.90;;;;;;5056477;28;20262;-56
2021/04/08 04:26:26;;;;;;;15.98;8.60;;;2.90;99.90;;;;;;5051059;28;20427;-53
2021/04/08 04:28:52;;;;;;;26.85;10.15;;;3.00;99.90;;;;;;5049634;28;20024;-54
2021/04/08 04:31:18;;;;;;;23.52;9.07;;;3.00;99.90;;;;;;5056856;28;20487;-54
2021/04/08 04:33:44;;;;;;;13.68;8.60;;;2.90;99.90;;;;;;5058754;28;20056;-58
2021/04/08 04:36:10;;;;;;;22.48;9.13;;;3.00;99.90;;;;;;5050952;28;20029;-55
2021/04/08 04:38:35;;;;;;;25.92;8.68;;;3.00;99.90;;;;;;5052849;28;20037;-54
2021/04/08 04:41:01;;;;;;;25.40;10.15;;;3.00;99.90;;;;;;5055283;28;20373;-56
2021/04/08 04:43:27;;;;;;;17.63;8.48;;;3.00;99.90;;;;;;5055244;28;20025;-57
2021/04/08 04:45:52;;;;;;;18.83;9.13;;;2.90;99.90;;;;;;5052195;28;20029;-55
2021/04/08 04:48:18;;;;;;;16.70;9.50;;;2.90;99.90;;;;;;5048599;28;20032;-57
2021/04/08 04:50:43;;;;;;;21.08;9.38;;;2.90;99.90;;;;;;5054377;28;20096;-53
2021/04/08 04:53:09;;;;;;;20.75;9.70;;;2.90;99.90;;;;;;5063281;28;20067;-59
2021/04/08 04:55:34;;;;;;;24.42;9.48;;;2.90;99.90;;;;;;5034250;28;20040;-55
2021/04/08 04:58:00;;;;;;;19.50;9.30;;;2.80;99.90;;;;;;5052349;28;20116;-57
2021/04/08 05:00:26;;;;;;;24.58;10.35;;;2.80;99.90;;;;;;5052356;28;20020;-58
2021/04/08 05:02:51;;;;;;;32.67;10.55;;;2.80;99.90;;;;;;5062361;28;20039;-58
2021/04/08 05:05:17;;;;;;;23.98;9.65;;;2.80;99.90;;;;;;5051927;28;20452;-57
2021/04/08 05:07:43;;;;;;;19.25;10.85;;;2.80;99.90;;;;;;5052164;28;20037;-56
2021/04/08 05:10:10;;;;;;;22.65;10.50;;;2.80;99.90;;;;;;5056296;28;20032;-58
2021/04/08 05:12:35;;;;;;;31.25;10.70;;;2.90;99.90;;;;;;5062426;28;20490;-56
2021/04/08 05:15:01;;;;;;;19.25;9.52;;;2.90;99.90;;;;;;5052343;28;20041;-56
2021/04/08 05:17:26;;;;;;;21.42;9.35;;;2.90;99.90;;;;;;5052111;28;20017;-55
2021/04/08 05:19:52;;;;;;;23.65;9.93;;;2.90;99.90;;;;;;5043559;28;20033;-57
2021/04/08 05:22:18;;;;;;;21.60;10.32;;;2.90;99.90;;;;;;5059822;28;20029;-57
2021/04/08 05:24:43;;;;;;;25.33;9.55;;;2.90;99.90;;;;;;5052464;28;20029;-54
2021/04/08 05:27:09;;;;;;;27.45;11.48;;;2.90;99.90;;;;;;5050068;28;20033;-54
2021/04/08 05:29:35;;;;;;;26.23;9.95;;;3.00;99.90;;;;;;5051520;28;20036;-54
2021/04/08 05:32:00;;;;;;;20.50;10.32;;;3.00;99.90;;;;;;5062114;28;20031;-55
2021/04/08 05:34:26;;;;;;;25.08;10.93;;;3.00;99.90;;;;;;5050213;28;20036;-54
2021/04/08 05:36:52;;;;;;;22.27;9.40;;;3.00;99.90;;;;;;5051745;28;20124;-53
2021/04/08 05:39:18;;;;;;;18.65;8.90;;;3.00;99.90;;;;;;5051235;28;20528;-53
2021/04/08 05:41:44;;;;;;;23.70;9.30;;;3.10;99.90;;;;;;5059326;28;20020;-56
2021/04/08 05:44:10;;;;;;;25.85;8.93;;;3.00;99.90;;;;;;5051284;28;20071;-55
2021/04/08 05:46:35;;;;;;;18.83;10.02;;;3.10;99.90;;;;;;5058340;28;20074;-56
2021/04/08 05:49:01;;;;;;;25.58;9.02;;;3.10;99.90;;;;;;5052407;28;20020;-56
2021/04/08 05:51:27;;;;;;;25.48;9.35;;;3.10;99.90;;;;;;5056832;28;20033;-56
2021/04/08 05:53:52;;;;;;;26.35;10.57;;;3.10;99.90;;;;;;5053124;28;20454;-57
2021/04/08 05:56:18;;;;;;;19.42;8.88;;;3.10;99.90;;;;;;5059862;28;20399;-56
2021/04/08 05:58:43;;;;;;;22.55;9.35;;;3.10;99.90;;;;;;5050865;28;20033;-55
2021/04/08 06:01:09;;;;;;;23.70;8.40;;;3.20;99.90;;;;;;5058313;28;20081;-57
2021/04/08 06:03:34;;;;;;;23.30;8.80;;;3.20;99.90;;;;;;5056430;28;20052;-54
2021/04/08 06:06:00;;;;;;;25.17;8.93;;;3.20;99.90;;;;;;5053075;28;20029;-53
2021/04/08 06:08:25;;;;;;;17.42;8.00;;;3.30;99.90;;;;;;5056306;28;20032;-56
2021/04/08 06:10:51;;;;;;;18.67;8.05;;;3.20;99.90;;;;;;5057703;28;20032;-52
2021/04/08 06:13:16;;;;;;;16.83;7.57;;;3.30;99.90;;;;;;5054905;28;20037;-56
2021/04/08 06:15:42;;;;;;;24.75;7.95;;;3.30;99.90;;;;;;5056702;28;20360;-55
2021/04/08 06:18:08;;;;;;;22.15;9.18;;;3.30;99.90;;;;;;5053332;28;20024;-56
2021/04/08 06:20:33;;;;;;;18.73;7.47;;;3.40;99.90;;;;;;5049075;28;20391;-53
2021/04/08 06:22:59;;;;;;;17.00;8.70;;;3.40;99.90;;;;;;5048422;28;20028;-57
2021/04/08 06:25:25;;;;;;;21.13;7.75;;;3.40;99.90;;;;;;5050384;28;20426;-56
2021/04/08 06:27:51;;;;;;;23.75;8.38;;;3.40;99.90;;;;;;5045860;28;20040;-56
2021/04/08 06:30:18;;;;;;;20.15;8.35;;;3.30;99.90;;;;;;5051053;28;20033;-57
2021/04/08 06:32:44;;;;;;;16.83;7.35;;;3.40;99.90;;;;;;5049466;28;20029;-57
2021/04/08 06:35:10;;;;;;;21.33;7.97;;;3.40;99.90;;;;;;5053152;28;20028;-57
2021/04/08 06:37:36;;;;;;;23.58;8.15;;;3.50;99.90;;;;;;5052760;28;20017;-57
2021/04/08 06:40:02;;;;;;;14.23;7.18;;;3.50;99.90;;;;;;5055773;28;20033;-56
2021/04/08 06:42:30;;;;;;;22.52;8.40;;;3.50;99.90;;;;;;5055633;28;20033;-55
2021/04/08 06:44:57;;;;;;;27.33;8.75;;;3.50;99.90;;;;;;5046241;28;20074;-55
2021/04/08 06:47:29;;;;;;;19.27;8.27;;;3.60;99.90;;;;;;5055661;28;20478;-53
2021/04/08 06:49:58;;;;;;;23.15;7.55;;;3.50;99.90;;;;;;5030416;28;20037;-53
2021/04/08 06:52:24;;;;;;;20.98;7.82;;;3.60;99.90;;;;;;5051443;28;20082;-50
2021/04/08 06:54:50;;;;;;;21.67;8.15;;;3.60;99.90;;;;;;5039897;28;20029;-54
2021/04/08 06:57:17;;;;;;;21.38;7.65;;;3.60;99.90;;;;;;5048828;28;20076;-53
2021/04/08 06:59:45;;;;;;;24.38;8.45;;;3.70;99.90;;;;;;5057796;28;20048;-53
2021/04/08 07:02:15;;;;;;;22.08;8.45;;;3.80;99.90;;;;;;5058025;28;20032;-50
2021/04/08 07:04:40;;;;;;;23.70;7.60;;;3.90;99.90;;;;;;5051470;28;20021;-51
2021/04/08 07:07:06;;;;;;;18.38;7.47;;;4.00;99.90;;;;;;5052479;28;20478;-52
2021/04/08 07:09:32;;;;;;;19.40;7.97;;;4.10;99.90;;;;;;5051281;28;20150;-50
2021/04/08 07:12:00;;;;;;;16.67;6.75;;;4.10;99.90;;;;;;5053376;28;20498;-52
2021/04/08 07:14:26;;;;;;;20.40;7.53;;;4.20;99.90;;;;;;5056237;28;20020;-53
2021/04/08 07:16:52;;;;;;;16.67;6.35;;;4.30;99.90;;;;;;5059449;28;20104;-52
2021/04/08 07:19:18;;;;;;;18.63;6.30;;;4.40;99.90;;;;;;5050327;28;20143;-52
2021/04/08 07:21:44;;;;;;;15.13;5.60;;;4.50;99.90;;;;;;5055276;28;20036;-50
2021/04/08 07:24:13;;;;;;;16.25;7.32;;;4.60;99.90;;;;;;5054007;28;20024;-50
2021/04/08 07:26:59;;;;;;;18.35;6.55;;;4.70;99.90;;;;;;5050636;28;20025;-51
2021/04/08 07:29:57;;;;;;;18.65;5.43;;;4.70;99.90;;;;;;5050951;28;20036;-51
2021/04/08 07:32:43;;;;;;;13.30;5.38;;;4.80;99.90;;;;;;5049247;28;20067;-50
2021/04/08 07:35:15;;;;;;;16.90;6.38;;;4.90;99.90;;;;;;5052703;28;20028;-53
2021/04/08 07:37:43;;;;;;;14.98;6.10;;;4.90;99.90;;;;;;5049925;28;20033;-54
2021/04/08 07:40:20;;;;;;;12.00;6.28;;;5.00;99.90;;;;;;5057754;28;20021;-50
2021/04/08 07:42:46;;;;;;;12.93;5.95;;;5.00;99.90;;;;;;5048934;28;20667;-53
2021/04/08 07:45:22;;;;;;;16.58;5.47;;;5.10;99.90;;;;;;5046806;28;20028;-53
2021/04/08 07:47:58;;;;;;;14.60;5.18;;;5.20;99.90;;;;;;5034697;28;20052;-54
2021/04/08 07:50:23;;;;;;;15.80;5.50;;;5.30;99.90;;;;;;5050448;28;20113;-50
2021/04/08 07:52:50;;;;;;;16.15;5.40;;;5.30;99.90;;;;;;5048070;28;20458;-53
2021/04/08 07:55:23;;;;;;;13.32;4.70;;;5.30;99.90;;;;;;5053034;28;20074;-50
2021/04/08 07:57:51;;;;;;;16.23;5.07;;;5.40;99.90;;;;;;5035177;28;20021;-53
2021/04/08 08:00:25;;;;;;;12.00;5.38;;;5.50;99.90;;;;;;5049880;28;20100;-53
2021/04/08 08:02:51;;;;;;;14.45;5.25;;;5.50;99.90;;;;;;5055298;28;20414;-53
2021/04/08 08:05:36;;;;;;;16.40;5.85;;;5.60;99.90;;;;;;5045203;28;20024;-52
2021/04/08 08:08:15;;;;;;;18.27;5.80;;;5.80;99.90;;;;;;5042353;28;20059;-52
2021/04/08 08:11:02;;;;;;;16.10;6.40;;;5.90;99.90;;;;;;5050648;28;20025;-51
2021/04/08 08:13:35;;;;;;;15.75;5.97;;;5.80;99.90;;;;;;5043833;28;20041;-50
2021/04/08 08:16:02;;;;;;;24.63;7.22;;;5.90;99.90;;;;;;5036699;28;20516;-51
2021/04/08 08:18:43;;;;;;;17.42;6.25;;;6.00;99.90;;;;;;5055078;28;20108;-53
2021/04/08 08:21:12;;;;;;;14.68;4.93;;;6.00;99.90;;;;;;5049333;28;20033;-49
2021/04/08 08:23:46;;;;;;;12.07;4.53;;;6.10;99.90;;;;;;5054749;28;20017;-53
2021/04/08 08:26:39;;;;;;;13.75;4.70;;;6.10;99.90;;;;;;5054154;28;20027;-53
2021/04/08 08:29:10;;;;;;;11.00;4.90;;;6.10;99.90;;;;;;5049810;28;20039;-53
2021/04/08 08:31:45;;;;;;;17.27;4.90;;;6.10;99.90;;;;;;5051882;28;20033;-50
2021/04/08 08:34:16;;;;;;;13.95;5.03;;;6.20;99.90;;;;;;5043261;28;20034;-53
2021/04/08 08:36:44;;;;;;;13.18;4.90;;;6.20;99.90;;;;;;5046324;28;20082;-50
2021/04/08 08:39:12;;;;;;;12.90;5.13;;;6.30;99.90;;;;;;5042723;28;20029;-53
2021/04/08 08:41:39;;;;;;;14.27;5.80;;;6.30;99.90;;;;;;5054270;28;20389;-52
2021/04/08 08:44:07;;;;;;;14.75;4.82;;;6.40;99.90;;;;;;5044258;28;20032;-53
2021/04/08 08:46:41;;;;;;;15.45;5.07;;;6.40;99.90;;;;;;5045502;28;20334;-52
2021/04/08 08:49:07;;;;;;;12.60;4.53;;;6.60;99.90;;;;;;5047412;28;20056;-54
2021/04/08 08:51:36;;;;;;;18.27;5.47;;;6.70;99.90;;;;;;5057164;28;20123;-54
2021/04/08 08:54:02;;;;;;;10.90;5.07;;;6.80;99.90;;;;;;5054751;28;20021;-54
2021/04/08 08:56:29;;;;;;;12.50;4.18;;;7.10;99.90;;;;;;5055538;28;20017;-53
2021/04/08 08:58:55;;;;;;;12.20;3.42;;;7.30;99.90;;;;;;5051176;28;20021;-55
2021/04/08 09:01:22;;;;;;;7.82;2.70;;;7.20;99.90;;;;;;5056545;28;20037;-54
2021/04/08 09:03:48;;;;;;;11.35;4.13;;;7.30;99.90;;;;;;5053478;28;20168;-51
2021/04/08 09:06:15;;;;;;;8.65;2.70;;;7.30;99.90;;;;;;5062815;28;20025;-52
2021/04/08 09:08:46;;;;;;;11.82;3.08;;;7.00;99.90;;;;;;5051445;28;20058;-54
2021/04/08 09:11:27;;;;;;;10.27;3.15;;;7.10;99.90;;;;;;5055776;28;20458;-50
2021/04/08 09:13:54;;;;;;;6.88;2.97;;;7.00;99.90;;;;;;5053225;28;20017;-50
2021/04/08 09:16:20;;;;;;;5.32;3.38;;;7.00;99.90;;;;;;5048969;28;20398;-52
2021/04/08 09:19:06;;;;;;;10.68;3.55;;;7.10;99.90;;;;;;5054982;28;20025;-53
2021/04/08 09:21:50;;;;;;;9.18;3.45;;;6.90;99.90;;;;;;5049585;28;20029;-54
2021/04/08 09:24:32;;;;;;;9.98;3.08;;;7.00;99.90;;;;;;5045488;28;20033;-54
2021/04/08 09:26:59;;;;;;;6.15;2.90;;;7.00;99.90;;;;;;5043238;28;20040;-55
2021/04/08 09:29:33;;;;;;;8.57;3.17;;;7.20;99.90;;;;;;5047714;28;20505;-52
2021/04/08 09:32:22;;;;;;;8.32;3.50;;;7.20;99.90;;;;;;5047506;28;20060;-54
2021/04/08 09:35:09;;;;;;;10.48;3.78;;;7.00;99.90;;;;;;5046849;28;20044;-55
2021/04/08 09:37:47;;;;;;;11.80;3.25;;;7.10;99.90;;;;;;5026032;28;20067;-53
2021/04/08 09:40:21;;;;;;;3.63;2.45;;;7.10;99.90;;;;;;5047996;28;20039;-52
2021/04/08 09:43:16;;;;;;;7.30;2.85;;;7.00;99.50;;;;;;5045523;28;20036;-54
2021/04/08 09:45:44;;;;;;;6.87;2.90;;;6.90;99.50;;;;;;5047375;28;20411;-51
2021/04/08 09:48:15;;;;;;;12.35;3.08;;;6.90;99.90;;;;;;5053379;28;20756;-50
2021/04/08 09:50:49;;;;;;;6.07;2.75;;;6.90;99.90;;;;;;5044522;28;20391;-52
2021/04/08 09:53:16;;;;;;;8.07;2.60;;;6.90;98.50;;;;;;5047578;28;20116;-51
2021/04/08 09:55:49;;;;;;;12.45;3.03;;;7.00;99.90;;;;;;5048380;28;20513;-55
2021/04/08 09:58:20;;;;;;;4.25;2.88;;;7.10;98.90;;;;;;5049638;28;20396;-52
2021/04/08 10:00:46;;;;;;;4.80;2.65;;;7.20;98.40;;;;;;5047311;28;20033;-53
2021/04/08 10:03:12;;;;;;;8.55;2.58;;;7.40;98.30;;;;;;5047808;28;20021;-53
2021/04/08 10:05:40;;;;;;;10.52;3.80;;;7.50;96.70;;;;;;5047486;28;20033;-55
2021/04/08 10:08:08;;;;;;;6.80;3.67;;;7.40;95.40;;;;;;5049723;28;20078;-56
2021/04/08 10:10:36;;;;;;;6.82;2.97;;;7.40;95.90;;;;;;5050095;28;20406;-54
2021/04/08 10:13:29;;;;;;;8.23;3.25;;;7.40;95.50;;;;;;5046839;28;20502;-53
2021/04/08 10:16:00;;;;;;;11.32;3.60;;;7.80;95.60;;;;;;5047978;28;20036;-52
2021/04/08 10:18:28;;;;;;;6.35;3.15;;;8.50;96.00;;;;;;5048832;28;20025;-55
2021/04/08 10:20:56;;;;;;;6.75;3.97;;;8.90;96.00;;;;;;5050094;28;20047;-55
2021/04/08 10:23:44;;;;;;;7.53;3.75;;;8.80;94.10;;;;;;5044651;28;20118;-54
2021/04/08 10:26:12;;;;;;;6.95;4.28;;;8.80;92.50;;;;;;5051825;28;20079;-51
2021/04/08 10:28:40;;;;;;;9.55;4.55;;;8.80;94.00;;;;;;5040957;28;20048;-54
2021/04/08 10:31:33;;;;;;;8.20;4.05;;;8.20;92.40;;;;;;5046223;28;20512;-52
2021/04/08 10:34:06;;;;;;;9.65;3.83;;;8.40;94.10;;;;;;5018501;28;20048;-52
2021/04/08 10:36:41;;;;;;;5.80;3.88;;;9.00;95.70;;;;;;5052464;28;20025;-54
2021/04/08 10:39:10;;;;;;;7.63;3.80;;;8.90;94.30;;;;;;5051034;28;20025;-55
2021/04/08 10:41:37;;;;;;;18.40;5.22;;;8.70;94.20;;;;;;5052590;28;20021;-53
2021/04/08 10:44:23;;;;;;;14.05;5.03;;;8.70;94.60;;;;;;5049858;28;20036;-53
2021/04/08 10:46:50;;;;;;;9.55;3.70;;;8.70;95.40;;;;;;5054048;28;20094;-54
2021/04/08 10:49:30;;;;;;;12.15;4.20;;;8.50;93.90;;;;;;5049579;28;20021;-56
2021/04/08 10:52:01;;;;;;;9.75;4.40;;;8.30;93.90;;;;;;5050471;28;20491;-53
2021/04/08 10:54:30;;;;;;;7.72;4.18;;;8.30;93.40;;;;;;5044301;28;20033;-53
2021/04/08 10:56:58;;;;;;;12.20;4.00;;;8.30;93.30;;;;;;5050701;28;20490;-57
2021/04/08 10:59:25;;;;;;;9.55;4.68;;;8.60;93.50;;;;;;5046200;28;20032;-52
2021/04/08 11:01:52;;;;;;;15.43;4.95;;;8.60;93.40;;;;;;5049742;28;20064;-56
2021/04/08 11:04:19;;;;;;;14.20;3.97;;;8.50;93.40;;;;;;5047260;28;20052;-52
2021/04/08 11:06:46;;;;;;;7.88;3.83;;;7.90;92.50;;;;;;5046812;28;20025;-55
2021/04/08 11:09:20;;;;;;;7.88;4.20;;;7.70;92.70;;;;;;5046681;28;20429;-53
2021/04/08 11:11:46;;;;;;;6.00;2.53;;;7.70;92.50;;;;;;5053028;28;20017;-56
2021/04/08 11:14:26;;;;;;;10.95;3.72;;;8.20;93.60;;;;;;5046835;28;20036;-56
2021/04/08 11:16:54;;;;;;;6.85;3.58;;;8.90;93.40;;;;;;5049989;28;20021;-56
2021/04/08 11:19:21;;;;;;;6.95;4.28;;;9.30;91.70;;;;;;5047607;28;20108;-53
2021/04/08 11:21:47;;;;;;;11.90;3.90;;;9.30;92.40;;;;;;5048115;28;20049;-55
2021/04/08 11:24:14;;;;;;;16.55;3.72;;;9.60;91.60;;;;;;5051857;28;20519;-55
2021/04/08 11:26:50;;;;;;;10.27;3.85;;;9.80;91.10;;;;;;5045838;28;20064;-53
2021/04/08 11:29:23;;;;;;;10.52;4.03;;;10.00;91.80;;;;;;5047306;28;20025;-56
2021/04/08 11:32:09;;;;;;;12.10;4.40;;;9.90;89.90;;;;;;5040754;28;20048;-53
2021/04/08 11:34:46;;;;;;;10.98;3.85;;;9.40;90.20;;;;;;5040784;28;20029;-52
2021/04/08 11:37:14;;;;;;;5.90;3.38;;;9.60;90.80;;;;;;5049073;28;20021;-55
2021/04/08 11:39:41;;;;;;;9.40;4.43;;;10.00;91.40;;;;;;5050229;28;20036;-60
2021/04/08 11:42:21;;;;;;;8.90;3.75;;;10.30;88.80;;;;;;5056870;28;20055;-55
2021/04/08 11:44:49;;;;;;;7.53;3.83;;;10.40;88.80;;;;;;5051445;28;20025;-52
2021/04/08 11:47:20;;;;;;;11.35;4.13;;;10.40;87.00;;;;;;5047169;28;20033;-56
2021/04/08 11:49:54;;;;;;;10.18;3.92;;;9.90;86.20;;;;;;5047070;28;20033;-57
2021/04/08 11:52:27;;;;;;;6.68;4.40;;;9.90;88.90;;;;;;5050657;28;20041;-55
2021/04/08 11:54:56;;;;;;;7.45;3.47;;;10.20;87.00;;;;;;5051510;28;20576;-56
2021/04/08 11:57:23;;;;;;;9.05;3.95;;;10.70;85.60;;;;;;5055517;28;20032;-55
2021/04/08 11:59:48;;;;;;;7.95;4.00;;;11.20;84.10;;;;;;5051827;28;20021;-55
2021/04/08 12:02:36;;;;;;;7.45;4.18;;;11.30;84.10;;;;;;5052505;28;20071;-56
2021/04/08 12:05:10;;;;;;;7.05;3.85;;;11.70;82.10;;;;;;5049069;28;20527;-56
2021/04/08 12:07:50;;;;;;;10.90;4.15;;;11.30;79.90;;;;;;5053488;28;20029;-56
2021/04/08 12:10:26;;;;;;;7.80;4.40;;;11.10;82.90;;;;;;5047006;28;20033;-54
2021/04/08 12:12:54;;;;;;;8.38;3.40;;;11.50;79.70;;;;;;5049028;28;20109;-55
2021/04/08 12:15:31;;;;;;;11.40;4.40;;;11.20;82.10;;;;;;5048403;28;20355;-57
2021/04/08 12:17:57;;;;;;;6.55;3.78;;;10.90;80.50;;;;;;5054329;28;20032;-57
2021/04/08 12:20:24;;;;;;;8.60;4.40;;;10.40;82.50;;;;;;5049751;28;20493;-55
2021/04/08 12:22:50;;;;;;;7.75;3.78;;;10.20;82.00;;;;;;5052432;28;20039;-56
2021/04/08 12:25:17;;;;;;;8.43;3.53;;;10.70;82.80;;;;;;5058951;28;21028;-53
2021/04/08 12:27:43;;;;;;;9.30;3.30;;;11.10;84.70;;;;;;5053866;28;20021;-55
2021/04/08 12:30:11;;;;;;;13.00;4.53;;;10.90;86.30;;;;;;5051525;28;20074;-55
2021/04/08 12:32:36;;;;;;;4.85;2.97;;;11.40;87.60;;;;;;5046749;28;20499;-55
2021/04/08 12:35:03;;;;;;;6.22;2.72;;;11.10;81.30;;;;;;5048989;28;20082;-58
2021/04/08 12:37:29;;;;;;;5.93;3.30;;;10.70;82.00;;;;;;5049847;28;20025;-56
2021/04/08 12:39:55;;;;;;;7.13;3.28;;;10.50;80.30;;;;;;5057253;28;20024;-54
2021/04/08 12:42:22;;;;;;;6.40;3.22;;;10.50;83.00;;;;;;5056420;28;20486;-55
2021/04/08 12:44:48;;;;;;;8.27;3.60;;;10.60;80.40;;;;;;5050503;28;20451;-55
2021/04/08 12:47:13;;;;;;;7.05;3.28;;;10.20;79.20;;;;;;5053210;28;20036;-53
2021/04/08 12:49:39;;;;;;;10.50;4.47;;;10.10;80.80;;;;;;5054706;28;20040;-58
2021/04/08 12:52:05;;;;;;;10.13;4.00;;;9.70;80.50;;;;;;5048281;28;20036;-56
2021/04/08 12:54:32;;;;;;;7.65;3.70;;;9.60;81.60;;;;;;5051091;28;20082;-57
2021/04/08 12:56:57;;;;;;;9.35;4.20;;;9.40;83.90;;;;;;5037317;28;20396;-53
2021/04/08 12:59:23;;;;;;;9.07;4.10;;;9.50;83.80;;;;;;5054782;28;20035;-53